Time;durP1;ratioP1;P1;durP2;ratioP2;P2;SDS_P1;SDS_P2;PMS_P1;PMS_P2;Temp;Humidity;BMP_temperature;BMP_pressure;BME280_temperature;BME280_humidity;BME280_pressure;Samples;Min_cycle;Max_cycle;Signal;HPM_P1;HPM_P2
2020/12/19 00:02:06;;;;;;;16.10;10.20;;;5.00;99.90;;;;;;4975589;28;20555;-65
2020/12/19 00:04:33;;;;;;;21.23;10.15;;;5.10;99.90;;;;;;4975517;28;20247;-65
2020/12/19 00:06:59;;;;;;;17.48;11.38;;;5.00;99.90;;;;;;4975705;28;20266;-62
2020/12/19 00:09:25;;;;;;;14.60;10.33;;;5.00;99.90;;;;;;4975495;28;20583;-65
2020/12/19 00:11:51;;;;;;;17.37;10.90;;;4.90;99.90;;;;;;4975437;28;20180;-65
2020/12/19 00:14:21;;;;;;;16.92;9.85;;;4.90;99.90;;;;;;4975333;28;20434;-65
2020/12/19 00:16:47;;;;;;;16.40;10.95;;;4.90;99.90;;;;;;4975446;28;20214;-65
2020/12/19 00:19:12;;;;;;;15.48;9.40;;;4.90;99.90;;;;;;4975466;28;20203;-65
2020/12/19 00:21:38;;;;;;;13.90;10.23;;;4.90;99.90;;;;;;4975472;28;20592;-65
2020/12/19 00:24:05;;;;;;;16.10;10.83;;;4.90;99.90;;;;;;4975061;28;20203;-65
2020/12/19 00:26:38;;;;;;;14.32;9.23;;;4.80;99.90;;;;;;4975419;28;20609;-65
2020/12/19 00:29:06;;;;;;;15.40;9.80;;;4.80;99.90;;;;;;4974312;28;20188;-65
2020/12/19 00:31:32;;;;;;;41.45;23.20;;;4.70;99.90;;;;;;4975230;28;20180;-65
2020/12/19 00:33:58;;;;;;;15.40;11.93;;;4.70;99.90;;;;;;4973882;28;20195;-65
2020/12/19 00:36:24;;;;;;;32.90;18.10;;;4.70;99.90;;;;;;4975170;28;20188;-65
2020/12/19 00:38:50;;;;;;;17.20;11.13;;;4.70;99.90;;;;;;4975145;28;20431;-65
2020/12/19 00:41:17;;;;;;;13.88;10.05;;;4.70;99.90;;;;;;4975113;28;20272;-65
2020/12/19 00:43:43;;;;;;;13.93;10.13;;;4.70;99.90;;;;;;4975346;28;20656;-65
2020/12/19 00:46:16;;;;;;;14.33;10.27;;;4.60;99.90;;;;;;4975035;28;20211;-65
2020/12/19 00:48:42;;;;;;;13.05;9.02;;;4.70;99.90;;;;;;4975227;28;20187;-65
2020/12/19 00:51:21;;;;;;;14.95;8.88;;;4.70;99.90;;;;;;4974951;28;20180;-65
2020/12/19 00:53:49;;;;;;;15.15;10.60;;;4.60;99.90;;;;;;4974585;28;20175;-65
2020/12/19 00:56:22;;;;;;;16.20;10.65;;;4.60;99.90;;;;;;4974062;28;20736;-65
2020/12/19 00:58:49;;;;;;;15.77;9.65;;;4.60;99.90;;;;;;4974699;28;20199;-65
2020/12/19 01:01:17;;;;;;;13.50;9.25;;;4.50;99.90;;;;;;4974828;28;20531;-65
2020/12/19 01:03:42;;;;;;;13.98;9.25;;;4.40;99.90;;;;;;4973383;28;20210;-65
2020/12/19 01:06:08;;;;;;;13.33;10.57;;;4.30;99.90;;;;;;4974727;28;20180;-65
2020/12/19 01:08:34;;;;;;;13.53;10.27;;;4.20;99.90;;;;;;4974692;28;20438;-65
2020/12/19 01:11:00;;;;;;;11.33;9.03;;;4.10;99.90;;;;;;4974719;28;20609;-65
2020/12/19 01:13:25;;;;;;;14.33;9.97;;;4.10;99.90;;;;;;4974462;28;20267;-65
2020/12/19 01:15:51;;;;;;;13.87;9.23;;;4.20;99.90;;;;;;4974644;28;20176;-65
2020/12/19 01:18:17;;;;;;;12.87;9.63;;;4.10;99.90;;;;;;4975024;28;20242;-65
2020/12/19 01:20:43;;;;;;;14.88;10.68;;;4.10;99.90;;;;;;4974595;28;20434;-65
2020/12/19 01:23:09;;;;;;;14.52;10.32;;;4.20;99.90;;;;;;4974264;28;20516;-65
2020/12/19 01:25:34;;;;;;;22.70;11.03;;;4.10;99.90;;;;;;4974607;28;20231;-65
2020/12/19 01:28:00;;;;;;;14.93;9.87;;;4.00;99.90;;;;;;4974499;28;20673;-65
2020/12/19 01:30:25;;;;;;;14.50;10.83;;;4.00;99.90;;;;;;4974511;28;20187;-65
2020/12/19 01:32:51;;;;;;;13.70;10.10;;;4.00;99.90;;;;;;4974391;28;20231;-63
2020/12/19 01:35:17;;;;;;;19.20;10.77;;;3.90;99.90;;;;;;4974271;28;20222;-63
2020/12/19 01:37:43;;;;;;;17.02;12.25;;;3.80;99.90;;;;;;4974387;28;20195;-63
2020/12/19 01:40:09;;;;;;;14.63;10.93;;;3.90;99.90;;;;;;4974430;28;20215;-63
2020/12/19 01:42:35;;;;;;;17.40;11.57;;;3.90;99.90;;;;;;4974533;28;20568;-64
2020/12/19 01:45:01;;;;;;;16.15;11.65;;;3.90;99.90;;;;;;4974497;28;20695;-64
2020/12/19 01:47:27;;;;;;;19.53;11.60;;;3.80;99.90;;;;;;4978603;28;20204;-65
2020/12/19 01:49:53;;;;;;;20.33;11.40;;;3.90;99.90;;;;;;4978189;28;20181;-65
2020/12/19 01:52:21;;;;;;;15.15;10.35;;;3.80;99.90;;;;;;4978392;28;20531;-65
2020/12/19 01:54:48;;;;;;;22.60;12.10;;;3.70;99.90;;;;;;4977868;28;20188;-65
2020/12/19 01:57:17;;;;;;;12.85;10.18;;;3.70;99.90;;;;;;4978103;28;20400;-65
2020/12/19 01:59:43;;;;;;;18.42;11.75;;;3.80;99.90;;;;;;4977887;28;20214;-65
2020/12/19 02:02:11;;;;;;;19.87;12.30;;;3.80;99.90;;;;;;4977781;28;20502;-65
2020/12/19 02:04:36;;;;;;;17.50;12.35;;;3.80;99.90;;;;;;4977601;28;20212;-65
2020/12/19 02:07:04;;;;;;;19.43;13.67;;;3.70;99.90;;;;;;4977995;28;20184;-65
2020/12/19 02:09:37;;;;;;;16.23;11.25;;;3.60;99.90;;;;;;4976786;28;20437;-65
2020/12/19 02:12:04;;;;;;;16.33;10.60;;;3.60;99.90;;;;;;4977788;28;20271;-65
2020/12/19 02:14:31;;;;;;;18.92;12.00;;;3.60;99.90;;;;;;4976503;28;20194;-65
2020/12/19 02:17:03;;;;;;;18.27;12.45;;;3.60;99.90;;;;;;4977752;28;20498;-65
2020/12/19 02:19:30;;;;;;;18.15;12.02;;;3.60;99.90;;;;;;4977689;28;20185;-65
2020/12/19 02:21:56;;;;;;;19.23;13.25;;;3.70;99.90;;;;;;4977621;28;20518;-65
2020/12/19 02:24:22;;;;;;;23.90;12.45;;;3.70;99.90;;;;;;4976286;28;20203;-65
2020/12/19 02:26:49;;;;;;;17.92;12.05;;;3.70;99.90;;;;;;4977519;28;20176;-65
2020/12/19 02:29:16;;;;;;;20.85;13.23;;;3.80;99.90;;;;;;4977359;28;20510;-65
2020/12/19 02:31:43;;;;;;;17.52;12.65;;;3.70;99.90;;;;;;4977417;28;20176;-65
2020/12/19 02:34:09;;;;;;;16.50;12.30;;;3.80;99.90;;;;;;4977195;28;20506;-65
2020/12/19 02:36:35;;;;;;;19.50;13.27;;;3.80;99.90;;;;;;4977322;28;20215;-65
2020/12/19 02:39:01;;;;;;;19.58;14.27;;;3.80;99.90;;;;;;4977315;28;20188;-65
2020/12/19 02:41:27;;;;;;;17.30;11.50;;;3.90;99.90;;;;;;4977197;28;20246;-65
2020/12/19 02:43:54;;;;;;;18.50;12.83;;;3.80;99.90;;;;;;4975748;28;20588;-65
2020/12/19 02:46:21;;;;;;;21.38;12.75;;;3.90;99.90;;;;;;4977126;28;20200;-65
2020/12/19 02:48:47;;;;;;;17.90;12.77;;;3.80;99.90;;;;;;4977254;28;20172;-65
2020/12/19 02:51:13;;;;;;;22.00;13.35;;;3.80;99.90;;;;;;4977119;28;20226;-65
2020/12/19 02:53:38;;;;;;;22.13;14.70;;;3.70;99.90;;;;;;4975829;28;20644;-65
2020/12/19 02:56:04;;;;;;;21.17;13.90;;;3.60;99.90;;;;;;4975742;28;20216;-65
2020/12/19 02:58:30;;;;;;;20.40;14.10;;;3.70;99.90;;;;;;4976040;28;20195;-65
2020/12/19 03:00:55;;;;;;;25.77;15.00;;;3.70;99.90;;;;;;4976948;28;20195;-65
2020/12/19 03:03:21;;;;;;;23.20;14.20;;;3.70;99.90;;;;;;4976585;28;20184;-65
2020/12/19 03:05:46;;;;;;;20.80;13.77;;;3.70;99.90;;;;;;4976790;28;20190;-65
2020/12/19 03:08:12;;;;;;;20.90;14.77;;;3.80;99.90;;;;;;4976687;28;20190;-65
2020/12/19 03:10:38;;;;;;;21.07;14.03;;;3.80;99.90;;;;;;4976744;28;20186;-65
2020/12/19 03:13:03;;;;;;;20.47;14.70;;;3.80;99.90;;;;;;4976641;28;20188;-65
2020/12/19 03:15:29;;;;;;;27.90;14.50;;;3.80;99.90;;;;;;4976550;28;20627;-65
2020/12/19 03:17:54;;;;;;;24.33;14.63;;;3.80;99.90;;;;;;4976612;28;20190;-65
2020/12/19 03:20:20;;;;;;;23.73;14.20;;;3.90;99.90;;;;;;4976568;28;20184;-65
2020/12/19 03:22:45;;;;;;;20.13;13.47;;;3.90;99.90;;;;;;4976485;28;20195;-63
2020/12/19 03:25:11;;;;;;;22.90;14.70;;;3.90;99.90;;;;;;4976101;28;20298;-63
2020/12/19 03:27:36;;;;;;;23.50;13.87;;;3.90;99.90;;;;;;4976299;28;20263;-63
2020/12/19 03:30:04;;;;;;;26.13;16.17;;;3.80;99.90;;;;;;4976260;28;20176;-64
2020/12/19 03:32:30;;;;;;;22.88;14.70;;;3.70;99.90;;;;;;4976373;28;20188;-65
2020/12/19 03:34:55;;;;;;;23.10;13.93;;;3.80;99.90;;;;;;4976065;28;20263;-65
2020/12/19 03:37:21;;;;;;;24.73;15.20;;;3.80;99.90;;;;;;4975289;28;20215;-65
2020/12/19 03:39:46;;;;;;;27.40;16.33;;;3.90;99.90;;;;;;4976204;28;20208;-65
2020/12/19 03:42:12;;;;;;;23.30;14.60;;;3.80;99.90;;;;;;4976229;28;20188;-65
2020/12/19 03:44:37;;;;;;;28.17;15.27;;;3.80;99.90;;;;;;4980263;28;20216;-65
2020/12/19 03:47:03;;;;;;;21.97;14.27;;;3.80;99.90;;;;;;4980490;28;20180;-65
2020/12/19 03:49:29;;;;;;;28.33;15.53;;;3.70;99.90;;;;;;4977171;28;20306;-65
2020/12/19 03:51:54;;;;;;;25.83;14.67;;;3.70;99.90;;;;;;4979376;28;20453;-65
2020/12/19 03:54:20;;;;;;;27.53;16.67;;;3.60;99.90;;;;;;4983157;28;20180;-65
2020/12/19 03:56:46;;;;;;;28.65;15.38;;;3.80;99.90;;;;;;4981068;28;20180;-65
2020/12/19 03:59:12;;;;;;;26.47;14.70;;;3.70;99.90;;;;;;4980877;28;20203;-65
2020/12/19 04:01:37;;;;;;;25.83;15.73;;;3.70;99.90;;;;;;4981224;28;20192;-65
2020/12/19 04:04:03;;;;;;;26.93;16.00;;;3.60;99.90;;;;;;4980263;28;20207;-65
2020/12/19 04:06:30;;;;;;;22.88;15.13;;;3.70;99.90;;;;;;4980339;28;20246;-65
2020/12/19 04:08:55;;;;;;;27.27;16.40;;;3.70;99.90;;;;;;4980510;28;20215;-63
2020/12/19 04:11:21;;;;;;;23.73;15.33;;;3.70;99.90;;;;;;4979152;28;20195;-63
2020/12/19 04:13:46;;;;;;;26.17;15.87;;;3.70;99.90;;;;;;4975329;28;20180;-63
2020/12/19 04:16:13;;;;;;;31.80;17.37;;;3.70;99.90;;;;;;4975576;28;20215;-63
2020/12/19 04:18:38;;;;;;;25.52;14.85;;;3.60;99.90;;;;;;4976120;28;20184;-63
2020/12/19 04:21:06;;;;;;;22.87;14.80;;;3.60;99.90;;;;;;4975924;28;20187;-63
2020/12/19 04:23:32;;;;;;;28.63;16.02;;;3.70;99.90;;;;;;4974950;28;20208;-63
2020/12/19 04:25:59;;;;;;;26.10;15.95;;;3.70;99.90;;;;;;4973046;28;20573;-63
2020/12/19 04:28:25;;;;;;;24.20;16.02;;;3.60;99.90;;;;;;4974285;28;20219;-64
2020/12/19 04:30:50;;;;;;;25.67;15.17;;;3.70;99.90;;;;;;4974414;28;20184;-66
2020/12/19 04:33:17;;;;;;;28.00;13.70;;;3.70;99.90;;;;;;4974933;28;20606;-64
2020/12/19 04:35:43;;;;;;;29.10;16.95;;;3.80;99.90;;;;;;4975111;28;20431;-64
2020/12/19 04:38:09;;;;;;;24.77;15.05;;;3.80;99.90;;;;;;4975216;28;20235;-64
2020/12/19 04:40:35;;;;;;;23.88;13.38;;;3.90;99.90;;;;;;4974185;28;20512;-64
2020/12/19 04:43:20;;;;;;;30.60;17.27;;;3.70;99.90;;;;;;4974230;28;20195;-64
2020/12/19 04:45:47;;;;;;;30.10;16.80;;;3.70;99.90;;;;;;4971628;28;20777;-64
2020/12/19 04:48:21;;;;;;;25.20;15.60;;;3.70;99.90;;;;;;4975025;28;20562;-64
2020/12/19 04:50:47;;;;;;;27.55;15.05;;;3.70;99.90;;;;;;4974921;28;20684;-64
2020/12/19 04:53:14;;;;;;;24.90;15.47;;;3.70;99.90;;;;;;4974641;28;20258;-64
2020/12/19 04:55:41;;;;;;;29.75;16.50;;;3.70;99.90;;;;;;4975029;28;20660;-64
2020/12/19 04:58:12;;;;;;;28.40;16.88;;;3.90;99.90;;;;;;4974714;28;20187;-64
2020/12/19 05:00:42;;;;;;;24.45;13.95;;;3.80;99.90;;;;;;4974759;28;20200;-64
2020/12/19 05:03:08;;;;;;;36.28;16.52;;;3.70;99.90;;;;;;4974534;28;20177;-64
2020/12/19 05:05:34;;;;;;;31.50;16.15;;;3.80;99.90;;;;;;4973993;28;20700;-64
2020/12/19 05:08:00;;;;;;;34.33;17.13;;;3.80;99.90;;;;;;4974619;28;20184;-64
2020/12/19 05:10:26;;;;;;;31.75;15.30;;;3.80;99.90;;;;;;4974847;28;20721;-64
2020/12/19 05:12:55;;;;;;;28.40;16.03;;;3.70;99.90;;;;;;4974514;28;20259;-64
2020/12/19 05:15:22;;;;;;;29.70;16.65;;;3.70;99.90;;;;;;4974493;28;20408;-64
2020/12/19 05:17:54;;;;;;;30.23;16.35;;;3.60;99.90;;;;;;4974652;28;20184;-61
2020/12/19 05:20:21;;;;;;;39.30;18.15;;;3.70;99.90;;;;;;4977579;28;20184;-62
2020/12/19 05:22:51;;;;;;;31.30;16.80;;;3.70;99.90;;;;;;4981103;28;20207;-62
2020/12/19 05:25:19;;;;;;;23.88;14.05;;;3.70;99.90;;;;;;4979700;28;20215;-62
2020/12/19 05:27:45;;;;;;;29.27;16.52;;;3.90;99.90;;;;;;4980875;28;20617;-62
2020/12/19 05:30:12;;;;;;;25.15;14.32;;;3.90;99.90;;;;;;4980925;28;20534;-62
2020/12/19 05:32:52;;;;;;;34.63;15.90;;;3.80;99.90;;;;;;4980963;28;20172;-61
2020/12/19 05:35:20;;;;;;;31.98;14.05;;;3.80;99.90;;;;;;4980717;28;20226;-61
2020/12/19 05:38:15;;;;;;;44.90;15.48;;;3.80;99.90;;;;;;4980928;28;20271;-61
2020/12/19 05:40:40;;;;;;;58.97;14.88;;;3.70;99.90;;;;;;4964294;28;20204;-63
2020/12/19 05:43:06;;;;;;;34.90;13.50;;;3.60;99.90;;;;;;4980637;28;20204;-63
2020/12/19 05:45:32;;;;;;;43.50;15.63;;;3.60;99.90;;;;;;4981006;28;20214;-62
2020/12/19 05:48:12;;;;;;;41.47;13.60;;;3.60;99.90;;;;;;4980885;28;20433;-63
2020/12/19 05:50:38;;;;;;;42.55;14.75;;;3.50;99.90;;;;;;4980864;28;20187;-63
2020/12/19 05:53:07;;;;;;;32.53;15.47;;;3.40;99.90;;;;;;4980808;28;20180;-63
2020/12/19 05:55:33;;;;;;;38.63;15.75;;;3.40;99.90;;;;;;4980585;28;20512;-64
2020/12/19 05:58:00;;;;;;;37.15;15.20;;;3.50;99.90;;;;;;4979726;28;20180;-65
2020/12/19 06:00:28;;;;;;;43.92;16.30;;;3.50;99.90;;;;;;4980767;28;20183;-64
2020/12/19 06:02:56;;;;;;;37.80;15.95;;;3.40;99.90;;;;;;4980637;28;20210;-64
2020/12/19 06:05:23;;;;;;;32.42;15.75;;;3.50;99.90;;;;;;4980430;28;20700;-64
2020/12/19 06:07:49;;;;;;;52.42;16.30;;;3.50;99.90;;;;;;4980769;28;20262;-64
2020/12/19 06:10:17;;;;;;;38.77;17.00;;;3.60;99.90;;;;;;4980661;28;20274;-64
2020/12/19 06:13:01;;;;;;;39.88;17.27;;;3.60;99.90;;;;;;4980479;28;20176;-64
2020/12/19 06:15:33;;;;;;;31.35;14.13;;;3.60;99.90;;;;;;4980424;28;20293;-64
2020/12/19 06:18:06;;;;;;;79.85;18.33;;;3.60;99.90;;;;;;4980605;28;20325;-64
2020/12/19 06:20:32;;;;;;;33.80;15.13;;;3.50;99.90;;;;;;4980646;28;20266;-64
2020/12/19 06:22:59;;;;;;;34.40;16.17;;;3.40;99.90;;;;;;4980525;28;20188;-64
2020/12/19 06:25:44;;;;;;;32.92;13.93;;;3.60;99.90;;;;;;4980181;28;20235;-64
2020/12/19 06:28:15;;;;;;;30.02;14.20;;;3.60;99.90;;;;;;4980703;28;20206;-65
2020/12/19 06:31:01;;;;;;;33.65;14.68;;;3.50;99.90;;;;;;4980485;28;20172;-64
2020/12/19 06:33:33;;;;;;;36.67;13.70;;;3.60;99.90;;;;;;4976363;28;20254;-65
2020/12/19 06:36:03;;;;;;;28.35;14.70;;;3.60;99.90;;;;;;4976918;28;20199;-66
2020/12/19 06:38:41;;;;;;;35.20;16.42;;;3.70;99.90;;;;;;4976493;28;20180;-65
2020/12/19 06:41:07;;;;;;;25.13;13.43;;;3.80;99.90;;;;;;4977430;28;20202;-64
2020/12/19 06:43:32;;;;;;;28.92;15.18;;;3.70;99.90;;;;;;4976409;28;20364;-65
2020/12/19 06:46:04;;;;;;;26.70;13.23;;;3.60;99.90;;;;;;4976687;28;20308;-66
2020/12/19 06:48:34;;;;;;;24.52;13.90;;;3.50;99.90;;;;;;4977597;28;20180;-63
2020/12/19 06:51:02;;;;;;;25.05;12.55;;;3.50;99.90;;;;;;4977816;28;20676;-63
2020/12/19 06:53:29;;;;;;;24.45;13.02;;;3.50;99.90;;;;;;4976907;28;20564;-63
2020/12/19 06:55:55;;;;;;;22.10;14.48;;;3.60;99.90;;;;;;4976920;28;20172;-65
2020/12/19 06:58:33;;;;;;;28.23;13.75;;;3.60;99.90;;;;;;4977533;28;20263;-66
2020/12/19 07:01:00;;;;;;;28.50;14.18;;;3.60;99.90;;;;;;4976955;28;20184;-65
2020/12/19 07:03:42;;;;;;;26.23;15.52;;;3.60;99.90;;;;;;4976607;28;20199;-66
2020/12/19 07:06:15;;;;;;;24.15;13.23;;;3.70;99.90;;;;;;4978315;28;20182;-65
2020/12/19 07:08:42;;;;;;;20.85;12.90;;;3.70;99.90;;;;;;4977539;28;20546;-65
2020/12/19 07:11:33;;;;;;;23.20;14.38;;;3.60;99.90;;;;;;4976524;28;20278;-65
2020/12/19 07:14:00;;;;;;;24.55;13.05;;;3.50;99.90;;;;;;4976633;28;20192;-65
2020/12/19 07:16:47;;;;;;;24.23;13.77;;;3.50;99.90;;;;;;4978376;28;20783;-65
2020/12/19 07:19:20;;;;;;;22.52;13.45;;;3.50;99.90;;;;;;4978592;28;20194;-65
2020/12/19 07:21:46;;;;;;;20.10;13.30;;;3.50;99.90;;;;;;4977534;28;20349;-65
2020/12/19 07:24:12;;;;;;;23.15;12.60;;;3.60;99.90;;;;;;4976159;28;20719;-65
2020/12/19 07:26:39;;;;;;;30.05;16.20;;;3.70;99.90;;;;;;4976556;28;20180;-65
2020/12/19 07:29:18;;;;;;;19.27;12.80;;;3.60;99.90;;;;;;4976631;28;20259;-65
2020/12/19 07:31:55;;;;;;;22.20;12.20;;;3.70;99.90;;;;;;4976425;28;20179;-65
2020/12/19 07:34:21;;;;;;;19.85;12.98;;;3.60;99.90;;;;;;4976444;28;20180;-65
2020/12/19 07:36:48;;;;;;;20.33;12.98;;;3.60;99.90;;;;;;4975482;28;20188;-65
2020/12/19 07:39:15;;;;;;;22.52;13.52;;;3.40;99.90;;;;;;4975316;28;20271;-65
2020/12/19 07:41:46;;;;;;;22.67;12.52;;;3.40;99.90;;;;;;4975272;28;20188;-65
2020/12/19 07:44:17;;;;;;;23.90;14.60;;;3.40;99.90;;;;;;4975436;28;20600;-65
2020/12/19 07:46:49;;;;;;;22.77;15.30;;;3.50;99.90;;;;;;4975232;28;20271;-66
2020/12/19 07:49:23;;;;;;;21.35;14.30;;;3.50;99.90;;;;;;4975063;28;20517;-65
2020/12/19 07:51:48;;;;;;;24.23;13.95;;;3.60;99.90;;;;;;4989348;28;20290;-65
2020/12/19 07:54:15;;;;;;;30.43;14.87;;;3.70;99.90;;;;;;4995396;28;20436;-62
2020/12/19 07:56:41;;;;;;;28.83;15.45;;;3.80;99.90;;;;;;4995598;28;20187;-62
2020/12/19 07:59:09;;;;;;;27.63;15.38;;;3.90;99.90;;;;;;4995311;28;20591;-63
2020/12/19 08:01:39;;;;;;;23.48;13.85;;;3.90;99.90;;;;;;4995030;28;20198;-63
2020/12/19 08:04:05;;;;;;;28.10;15.50;;;4.00;99.90;;;;;;4995231;28;20596;-64
2020/12/19 08:06:44;;;;;;;23.30;15.07;;;4.10;99.90;;;;;;4995083;28;20211;-63
2020/12/19 08:09:09;;;;;;;30.20;17.00;;;4.00;99.90;;;;;;4994869;28;20175;-63
2020/12/19 08:11:50;;;;;;;26.33;14.97;;;4.20;99.90;;;;;;4991970;28;20510;-63
2020/12/19 08:14:17;;;;;;;33.58;14.65;;;4.20;99.90;;;;;;4970793;28;20274;-64
2020/12/19 08:16:44;;;;;;;28.50;14.50;;;4.20;99.90;;;;;;4975452;28;20531;-63
2020/12/19 08:19:30;;;;;;;35.03;16.95;;;4.20;99.90;;;;;;4975731;28;20271;-63
2020/12/19 08:22:00;;;;;;;30.70;16.58;;;4.20;99.90;;;;;;4976402;28;20289;-63
2020/12/19 08:24:26;;;;;;;32.05;17.42;;;4.20;99.90;;;;;;4969658;28;20298;-63
2020/12/19 08:27:25;;;;;;;31.07;16.33;;;4.30;99.90;;;;;;4975007;28;20275;-65
2020/12/19 08:30:14;;;;;;;29.52;14.82;;;4.30;99.90;;;;;;4975225;28;20432;-62
2020/12/19 08:32:50;;;;;;;23.98;13.15;;;4.30;99.90;;;;;;4975454;28;20242;-65
2020/12/19 08:35:22;;;;;;;28.92;16.90;;;4.40;99.90;;;;;;4975015;28;20725;-65
2020/12/19 08:37:48;;;;;;;32.60;16.08;;;4.40;99.90;;;;;;4975045;28;20512;-65
2020/12/19 08:40:19;;;;;;;28.25;16.85;;;4.40;99.90;;;;;;4974974;28;20187;-65
2020/12/19 08:42:46;;;;;;;31.92;17.95;;;4.50;99.90;;;;;;4975018;28;20202;-65
2020/12/19 08:45:22;;;;;;;33.70;18.25;;;4.50;99.90;;;;;;4974543;28;20355;-65
2020/12/19 08:47:51;;;;;;;26.65;14.52;;;4.60;99.90;;;;;;4975048;28;20270;-66
2020/12/19 08:50:24;;;;;;;32.70;17.42;;;4.60;99.90;;;;;;4974154;28;20186;-65
2020/12/19 08:53:03;;;;;;;29.73;16.33;;;4.70;99.90;;;;;;4974464;28;20191;-65
2020/12/19 08:55:29;;;;;;;27.90;15.07;;;4.70;99.90;;;;;;4974624;28;20191;-66
2020/12/19 08:57:55;;;;;;;29.40;17.77;;;4.80;99.90;;;;;;4974464;28;20274;-61
2020/12/19 09:00:20;;;;;;;32.97;17.10;;;4.80;99.90;;;;;;4975730;28;20172;-65
2020/12/19 09:02:48;;;;;;;32.57;16.57;;;4.90;99.90;;;;;;4973102;28;20194;-63
2020/12/19 09:05:14;;;;;;;33.08;16.35;;;5.00;99.90;;;;;;4973295;28;20222;-63
2020/12/19 09:07:39;;;;;;;29.63;17.00;;;5.00;99.90;;;;;;4974616;28;20172;-66
2020/12/19 09:10:24;;;;;;;30.57;17.17;;;5.10;99.90;;;;;;4975413;28;20186;-64
2020/12/19 09:13:22;;;;;;;31.73;17.85;;;5.20;99.90;;;;;;4976197;28;20180;-66
2020/12/19 09:15:49;;;;;;;35.58;21.35;;;5.20;99.90;;;;;;4974057;28;20514;-66
2020/12/19 09:18:23;;;;;;;32.28;18.05;;;5.20;99.90;;;;;;4974678;28;20191;-63
2020/12/19 09:20:57;;;;;;;37.30;17.23;;;5.20;99.90;;;;;;4974652;28;20175;-63
2020/12/19 09:23:24;;;;;;;37.03;21.05;;;5.30;99.90;;;;;;4974154;28;20307;-64
2020/12/19 09:25:50;;;;;;;39.13;20.13;;;5.40;99.90;;;;;;4974936;28;20183;-63
2020/12/19 09:28:16;;;;;;;33.58;19.27;;;5.40;99.90;;;;;;4974736;28;20527;-63
2020/12/19 09:30:42;;;;;;;36.80;20.57;;;5.40;99.90;;;;;;4974535;28;20191;-64
2020/12/19 09:33:08;;;;;;;30.47;17.87;;;5.40;99.90;;;;;;4974136;28;20884;-63
2020/12/19 09:35:34;;;;;;;29.90;16.38;;;5.50;99.90;;;;;;4974389;28;20201;-63
2020/12/19 09:37:59;;;;;;;28.93;18.00;;;5.50;99.90;;;;;;4974669;28;20207;-63
2020/12/19 09:40:25;;;;;;;33.37;19.93;;;5.60;99.90;;;;;;4974617;28;20219;-63
2020/12/19 09:42:51;;;;;;;31.03;19.73;;;5.60;99.90;;;;;;4973090;28;20785;-62
2020/12/19 09:45:17;;;;;;;33.80;19.57;;;5.70;99.90;;;;;;4973160;28;20463;-63
2020/12/19 09:47:43;;;;;;;35.07;19.77;;;5.70;99.90;;;;;;4973322;28;20239;-62
2020/12/19 09:50:10;;;;;;;36.40;20.90;;;5.80;99.90;;;;;;4974666;28;20506;-63
2020/12/19 09:52:36;;;;;;;30.25;19.08;;;5.90;99.90;;;;;;4974712;28;20552;-64
2020/12/19 09:55:03;;;;;;;30.95;17.05;;;5.90;99.90;;;;;;4974172;28;20187;-62
2020/12/19 09:57:29;;;;;;;29.60;17.45;;;5.90;99.90;;;;;;4974555;28;20576;-63
2020/12/19 09:59:54;;;;;;;30.47;17.17;;;5.90;99.90;;;;;;4974159;28;20195;-64
2020/12/19 10:02:20;;;;;;;38.40;20.10;;;5.90;99.90;;;;;;4974185;28;20173;-65
2020/12/19 10:04:45;;;;;;;40.50;21.33;;;6.00;99.90;;;;;;4973955;28;20290;-65
2020/12/19 10:07:11;;;;;;;36.47;19.50;;;6.10;99.90;;;;;;4976399;28;20270;-66
2020/12/19 10:09:36;;;;;;;34.63;18.77;;;6.30;99.90;;;;;;4978252;28;20263;-65
2020/12/19 10:12:02;;;;;;;36.20;19.30;;;6.40;99.90;;;;;;4977859;28;20184;-65
2020/12/19 10:14:28;;;;;;;26.70;17.50;;;6.50;99.90;;;;;;4977840;28;20243;-63
2020/12/19 10:16:54;;;;;;;29.87;18.83;;;6.40;99.90;;;;;;4977837;28;20190;-65
2020/12/19 10:19:20;;;;;;;30.10;18.77;;;6.40;88.20;;;;;;4976619;28;20260;-65
2020/12/19 10:21:46;;;;;;;28.90;17.70;;;6.50;40.90;;;;;;4977978;28;20194;-63
2020/12/19 10:24:11;;;;;;;24.37;17.07;;;6.40;1.00;;;;;;4977411;28;20943;-63
2020/12/19 10:26:37;;;;;;;28.40;16.30;;;6.50;1.00;;;;;;4977822;28;20176;-63
2020/12/19 10:29:02;;;;;;;26.73;16.03;;;6.60;1.00;;;;;;4976420;28;20215;-63
2020/12/19 10:31:28;;;;;;;22.73;14.73;;;6.40;1.00;;;;;;4976556;28;20267;-63
2020/12/19 10:33:54;;;;;;;25.07;18.10;;;6.50;1.00;;;;;;4976375;28;20184;-64
2020/12/19 10:36:20;;;;;;;26.77;17.03;;;6.70;1.00;;;;;;4977498;28;20792;-65
2020/12/19 10:38:46;;;;;;;26.73;17.00;;;6.70;1.00;;;;;;4977473;28;20195;-62
2020/12/19 10:41:13;;;;;;;26.05;16.15;;;6.70;1.00;;;;;;4977197;28;20605;-63
2020/12/19 10:43:42;;;;;;;29.92;16.52;;;6.80;1.00;;;;;;4976024;28;20232;-65
2020/12/19 10:46:08;;;;;;;24.85;15.30;;;6.90;1.00;;;;;;4977344;28;20187;-65
2020/12/19 10:48:34;;;;;;;23.55;15.77;;;6.90;1.00;;;;;;4977018;28;20725;-64
2020/12/19 10:51:00;;;;;;;24.83;15.50;;;6.90;1.00;;;;;;4977466;28;20207;-64
2020/12/19 10:53:26;;;;;;;21.00;14.30;;;6.90;1.00;;;;;;4976792;28;20242;-65
2020/12/19 10:55:52;;;;;;;23.50;15.05;;;7.00;1.00;;;;;;4976091;28;20183;-66
2020/12/19 10:58:18;;;;;;;21.58;12.77;;;7.00;1.00;;;;;;4976904;28;20192;-66
2020/12/19 11:00:44;;;;;;;21.83;14.00;;;7.10;1.00;;;;;;4976923;28;20262;-66
2020/12/19 11:03:10;;;;;;;21.85;14.50;;;7.30;1.00;;;;;;4976476;28;20195;-65
2020/12/19 11:05:42;;;;;;;23.60;13.73;;;7.30;1.00;;;;;;4976670;28;20241;-66
2020/12/19 11:08:08;;;;;;;22.80;14.48;;;7.40;1.00;;;;;;4977161;28;20734;-66
2020/12/19 11:10:34;;;;;;;19.77;12.68;;;7.40;1.00;;;;;;4975776;28;20188;-67
2020/12/19 11:13:03;;;;;;;19.63;12.18;;;7.50;1.00;;;;;;4975518;28;20275;-66
2020/12/19 11:15:32;;;;;;;18.25;12.60;;;7.60;1.00;;;;;;4976492;28;20521;-66
2020/12/19 11:17:58;;;;;;;19.17;12.82;;;7.80;1.00;;;;;;4975502;28;20180;-65
2020/12/19 11:20:24;;;;;;;15.87;12.53;;;7.80;1.00;;;;;;4976758;28;20191;-64
2020/12/19 11:22:49;;;;;;;17.77;11.60;;;7.80;1.00;;;;;;4976292;28;20431;-64
2020/12/19 11:25:16;;;;;;;21.00;13.67;;;7.80;1.00;;;;;;4975238;28;20250;-65
2020/12/19 11:27:41;;;;;;;16.17;11.57;;;7.80;1.00;;;;;;4976639;28;20769;-68
2020/12/19 11:30:07;;;;;;;14.90;11.50;;;7.90;1.00;;;;;;4976099;28;20180;-66
2020/12/19 11:32:33;;;;;;;15.43;11.10;;;8.00;1.00;;;;;;4975129;28;20180;-67
2020/12/19 11:34:59;;;;;;;17.73;10.75;;;8.00;1.00;;;;;;4975907;28;20198;-64
2020/12/19 11:37:25;;;;;;;17.60;11.13;;;8.10;1.00;;;;;;4976651;28;20519;-67
2020/12/19 11:39:51;;;;;;;17.83;11.55;;;8.00;1.00;;;;;;4976599;28;20196;-66
2020/12/19 11:42:17;;;;;;;15.27;10.82;;;8.10;1.00;;;;;;4976221;28;20216;-66
2020/12/19 11:44:42;;;;;;;14.33;11.13;;;8.20;1.00;;;;;;4976088;28;20246;-65
2020/12/19 11:47:08;;;;;;;18.10;11.97;;;8.20;1.00;;;;;;4976370;28;20202;-66
2020/12/19 11:49:33;;;;;;;15.03;10.53;;;8.40;1.00;;;;;;4975286;28;20234;-65
2020/12/19 11:52:00;;;;;;;13.60;10.40;;;8.40;99.90;;;;;;4974623;28;20180;-67
2020/12/19 11:54:25;;;;;;;17.15;10.93;;;8.40;99.90;;;;;;4974856;28;20274;-65
2020/12/19 11:56:51;;;;;;;15.47;10.40;;;8.60;99.90;;;;;;4974671;28;20270;-65
2020/12/19 11:59:17;;;;;;;17.20;11.43;;;8.70;99.90;;;;;;4974308;28;20204;-65
2020/12/19 12:01:42;;;;;;;13.80;9.60;;;8.60;99.90;;;;;;4974207;28;20219;-67
2020/12/19 12:04:08;;;;;;;12.50;9.13;;;8.70;99.90;;;;;;4974111;28;20262;-65
2020/12/19 12:06:34;;;;;;;32.40;19.97;;;8.80;99.90;;;;;;4975446;28;20187;-65
2020/12/19 12:09:04;;;;;;;27.52;17.67;;;8.80;99.90;;;;;;4974171;28;20184;-64
2020/12/19 12:11:32;;;;;;;18.52;13.43;;;8.70;99.90;;;;;;4975325;28;20172;-66
2020/12/19 12:13:59;;;;;;;13.77;10.45;;;8.80;99.90;;;;;;4973657;28;20243;-64
2020/12/19 12:16:25;;;;;;;18.20;10.85;;;8.80;99.90;;;;;;4975187;28;20191;-65
2020/12/19 12:18:51;;;;;;;18.15;11.65;;;8.80;99.90;;;;;;4975262;28;20192;-65
2020/12/19 12:21:17;;;;;;;15.25;9.85;;;8.90;99.90;;;;;;4975512;28;20187;-66
2020/12/19 12:23:45;;;;;;;18.07;11.67;;;8.90;78.80;;;;;;4974090;28;20183;-66
2020/12/19 12:26:11;;;;;;;13.75;10.13;;;8.90;61.10;;;;;;4975111;28;20430;-65
2020/12/19 12:28:36;;;;;;;15.60;10.82;;;9.00;97.80;;;;;;4975088;28;20216;-65
2020/12/19 12:31:02;;;;;;;14.70;9.43;;;8.90;80.90;;;;;;4974961;28;20508;-65
2020/12/19 12:33:28;;;;;;;16.50;11.30;;;9.00;96.80;;;;;;4974834;28;20187;-65
2020/12/19 12:35:53;;;;;;;13.07;10.17;;;9.00;82.40;;;;;;4974719;28;20239;-66
2020/12/19 12:38:19;;;;;;;13.47;9.57;;;9.10;99.90;;;;;;4974853;28;20593;-64
2020/12/19 12:40:45;;;;;;;12.50;9.43;;;9.10;62.30;;;;;;4974968;28;20646;-66
2020/12/19 12:43:11;;;;;;;13.48;9.48;;;9.10;92.40;;;;;;4975078;28;20180;-66